sensor_id;sensor_type;location;lat;lon;timestamp;P1;durP1;ratioP1;P2;durP2;ratioP2
19903;SDS011;10114;50.970;4.962;2023-08-06T00:00:27;8.13;;;1.42;;
19903;SDS011;10114;50.970;4.962;2023-08-06T00:02:53;6.10;;;1.50;;
19903;SDS011;10114;50.970;4.962;2023-08-06T00:05:19;8.65;;;1.90;;
19903;SDS011;10114;50.970;4.962;2023-08-06T00:07:49;8.00;;;1.63;;
19903;SDS011;10114;50.970;4.962;2023-08-06T00:10:15;6.07;;;1.65;;
19903;SDS011;10114;50.970;4.962;2023-08-06T00:12:42;5.13;;;2.13;;
19903;SDS011;10114;50.970;4.962;2023-08-06T00:15:08;8.85;;;1.85;;
19903;SDS011;10114;50.970;4.962;2023-08-06T00:17:35;6.53;;;1.58;;
19903;SDS011;10114;50.970;4.962;2023-08-06T00:20:01;4.43;;;1.35;;
19903;SDS011;10114;50.970;4.962;2023-08-06T00:22:35;4.78;;;1.48;;
19903;SDS011;10114;50.970;4.962;2023-08-06T00:25:01;4.20;;;1.58;;
19903;SDS011;10114;50.970;4.962;2023-08-06T00:27:28;4.50;;;1.33;;
19903;SDS011;10114;50.970;4.962;2023-08-06T00:29:54;3.38;;;1.27;;
19903;SDS011;10114;50.970;4.962;2023-08-06T00:32:20;7.72;;;1.40;;
19903;SDS011;10114;50.970;4.962;2023-08-06T00:34:46;3.95;;;1.38;;
19903;SDS011;10114;50.970;4.962;2023-08-06T00:37:14;5.72;;;1.63;;
19903;SDS011;10114;50.970;4.962;2023-08-06T00:39:41;5.03;;;1.60;;
19903;SDS011;10114;50.970;4.962;2023-08-06T00:42:08;4.57;;;1.58;;
19903;SDS011;10114;50.970;4.962;2023-08-06T00:44:34;8.65;;;1.83;;
19903;SDS011;10114;50.970;4.962;2023-08-06T00:47:00;4.35;;;1.42;;
19903;SDS011;10114;50.970;4.962;2023-08-06T00:49:26;3.88;;;0.95;;
19903;SDS011;10114;50.970;4.962;2023-08-06T00:51:52;7.68;;;1.40;;
19903;SDS011;10114;50.970;4.962;2023-08-06T00:54:18;7.18;;;1.45;;
19903;SDS011;10114;50.970;4.962;2023-08-06T00:56:44;5.72;;;1.17;;
19903;SDS011;10114;50.970;4.962;2023-08-06T00:59:11;4.95;;;1.30;;
19903;SDS011;10114;50.970;4.962;2023-08-06T01:01:37;3.17;;;1.30;;
19903;SDS011;10114;50.970;4.962;2023-08-06T01:04:03;3.72;;;1.17;;
19903;SDS011;10114;50.970;4.962;2023-08-06T01:09:04;5.60;;;1.20;;
19903;SDS011;10114;50.970;4.962;2023-08-06T01:12:37;3.22;;;1.17;;
19903;SDS011;10114;50.970;4.962;2023-08-06T01:14:34;4.20;;;1.38;;
19903;SDS011;10114;50.970;4.962;2023-08-06T01:17:03;5.93;;;1.60;;
19903;SDS011;10114;50.970;4.962;2023-08-06T01:19:30;5.18;;;1.35;;
19903;SDS011;10114;50.970;4.962;2023-08-06T01:21:56;4.68;;;0.98;;
19903;SDS011;10114;50.970;4.962;2023-08-06T01:24:22;3.80;;;1.50;;
19903;SDS011;10114;50.970;4.962;2023-08-06T01:26:51;6.60;;;1.30;;
19903;SDS011;10114;50.970;4.962;2023-08-06T01:29:22;4.55;;;1.27;;
19903;SDS011;10114;50.970;4.962;2023-08-06T01:31:50;6.47;;;1.10;;
19903;SDS011;10114;50.970;4.962;2023-08-06T01:34:17;3.75;;;1.40;;
19903;SDS011;10114;50.970;4.962;2023-08-06T01:36:46;3.67;;;1.50;;
19903;SDS011;10114;50.970;4.962;2023-08-06T01:39:12;3.20;;;1.30;;
19903;SDS011;10114;50.970;4.962;2023-08-06T01:41:38;5.70;;;1.42;;
19903;SDS011;10114;50.970;4.962;2023-08-06T01:44:04;6.13;;;1.35;;
19903;SDS011;10114;50.970;4.962;2023-08-06T01:46:30;5.18;;;1.48;;
19903;SDS011;10114;50.970;4.962;2023-08-06T01:48:56;5.65;;;1.70;;
19903;SDS011;10114;50.970;4.962;2023-08-06T01:51:22;6.28;;;1.65;;
19903;SDS011;10114;50.970;4.962;2023-08-06T01:53:48;3.63;;;1.65;;
19903;SDS011;10114;50.970;4.962;2023-08-06T01:56:14;4.80;;;1.77;;
19903;SDS011;10114;50.970;4.962;2023-08-06T01:58:40;4.80;;;1.70;;
19903;SDS011;10114;50.970;4.962;2023-08-06T02:01:06;7.72;;;2.15;;
19903;SDS011;10114;50.970;4.962;2023-08-06T02:03:32;6.78;;;2.17;;
19903;SDS011;10114;50.970;4.962;2023-08-06T02:05:58;4.97;;;1.58;;
19903;SDS011;10114;50.970;4.962;2023-08-06T02:08:24;7.50;;;2.05;;
19903;SDS011;10114;50.970;4.962;2023-08-06T02:10:50;6.82;;;2.35;;
19903;SDS011;10114;50.970;4.962;2023-08-06T02:13:16;7.50;;;1.73;;
19903;SDS011;10114;50.970;4.962;2023-08-06T02:15:45;8.73;;;2.20;;
19903;SDS011;10114;50.970;4.962;2023-08-06T02:18:15;4.80;;;2.17;;
19903;SDS011;10114;50.970;4.962;2023-08-06T02:20:41;4.38;;;1.65;;
19903;SDS011;10114;50.970;4.962;2023-08-06T02:23:07;5.75;;;2.03;;
19903;SDS011;10114;50.970;4.962;2023-08-06T02:25:34;5.20;;;1.77;;
19903;SDS011;10114;50.970;4.962;2023-08-06T02:28:00;7.45;;;2.08;;
19903;SDS011;10114;50.970;4.962;2023-08-06T02:30:26;6.80;;;2.47;;
19903;SDS011;10114;50.970;4.962;2023-08-06T02:32:52;11.15;;;2.50;;
19903;SDS011;10114;50.970;4.962;2023-08-06T02:35:18;5.70;;;2.30;;
19903;SDS011;10114;50.970;4.962;2023-08-06T02:37:44;7.20;;;2.65;;
19903;SDS011;10114;50.970;4.962;2023-08-06T02:40:10;7.00;;;2.95;;
19903;SDS011;10114;50.970;4.962;2023-08-06T02:42:36;7.95;;;3.83;;
19903;SDS011;10114;50.970;4.962;2023-08-06T02:45:02;8.18;;;3.55;;
19903;SDS011;10114;50.970;4.962;2023-08-06T02:47:28;9.98;;;3.70;;
19903;SDS011;10114;50.970;4.962;2023-08-06T02:49:54;7.65;;;3.67;;
19903;SDS011;10114;50.970;4.962;2023-08-06T02:52:20;9.02;;;3.38;;
19903;SDS011;10114;50.970;4.962;2023-08-06T02:54:46;7.85;;;3.45;;
19903;SDS011;10114;50.970;4.962;2023-08-06T02:57:12;7.10;;;3.58;;
19903;SDS011;10114;50.970;4.962;2023-08-06T02:59:38;9.60;;;4.20;;
19903;SDS011;10114;50.970;4.962;2023-08-06T03:02:04;7.65;;;3.80;;
19903;SDS011;10114;50.970;4.962;2023-08-06T03:04:30;8.55;;;3.72;;
19903;SDS011;10114;50.970;4.962;2023-08-06T03:06:56;12.18;;;4.68;;
19903;SDS011;10114;50.970;4.962;2023-08-06T03:09:22;7.95;;;4.22;;
19903;SDS011;10114;50.970;4.962;2023-08-06T03:11:48;8.48;;;4.30;;
19903;SDS011;10114;50.970;4.962;2023-08-06T03:14:14;8.20;;;3.42;;
19903;SDS011;10114;50.970;4.962;2023-08-06T03:16:40;8.80;;;4.32;;
19903;SDS011;10114;50.970;4.962;2023-08-06T03:19:06;11.38;;;4.63;;
19903;SDS011;10114;50.970;4.962;2023-08-06T03:21:32;13.15;;;4.20;;
19903;SDS011;10114;50.970;4.962;2023-08-06T03:23:58;11.63;;;4.43;;
19903;SDS011;10114;50.970;4.962;2023-08-06T03:26:24;10.27;;;4.60;;
19903;SDS011;10114;50.970;4.962;2023-08-06T03:28:50;9.90;;;4.10;;
19903;SDS011;10114;50.970;4.962;2023-08-06T03:31:16;10.55;;;4.78;;
19903;SDS011;10114;50.970;4.962;2023-08-06T03:33:42;10.75;;;4.95;;
19903;SDS011;10114;50.970;4.962;2023-08-06T03:36:08;11.73;;;4.60;;
19903;SDS011;10114;50.970;4.962;2023-08-06T03:38:34;13.35;;;4.60;;
19903;SDS011;10114;50.970;4.962;2023-08-06T03:41:00;7.70;;;4.60;;
19903;SDS011;10114;50.970;4.962;2023-08-06T03:43:26;9.95;;;5.45;;
19903;SDS011;10114;50.970;4.962;2023-08-06T03:45:52;12.77;;;5.70;;
19903;SDS011;10114;50.970;4.962;2023-08-06T03:48:18;10.32;;;5.05;;
19903;SDS011;10114;50.970;4.962;2023-08-06T03:50:44;8.57;;;5.03;;
19903;SDS011;10114;50.970;4.962;2023-08-06T03:53:10;10.70;;;4.95;;
19903;SDS011;10114;50.970;4.962;2023-08-06T03:55:36;10.55;;;4.75;;
19903;SDS011;10114;50.970;4.962;2023-08-06T03:58:02;8.05;;;4.38;;
19903;SDS011;10114;50.970;4.962;2023-08-06T04:00:28;9.25;;;4.00;;
19903;SDS011;10114;50.970;4.962;2023-08-06T04:02:54;10.73;;;4.28;;
19903;SDS011;10114;50.970;4.962;2023-08-06T04:05:20;10.95;;;4.38;;
19903;SDS011;10114;50.970;4.962;2023-08-06T04:07:46;9.55;;;4.75;;
19903;SDS011;10114;50.970;4.962;2023-08-06T04:10:12;9.18;;;3.78;;
19903;SDS011;10114;50.970;4.962;2023-08-06T04:12:38;7.97;;;4.07;;
19903;SDS011;10114;50.970;4.962;2023-08-06T04:15:05;8.88;;;4.00;;
19903;SDS011;10114;50.970;4.962;2023-08-06T04:17:31;8.25;;;4.38;;
19903;SDS011;10114;50.970;4.962;2023-08-06T04:19:57;9.23;;;4.07;;
19903;SDS011;10114;50.970;4.962;2023-08-06T04:22:24;8.70;;;4.45;;
19903;SDS011;10114;50.970;4.962;2023-08-06T04:24:50;10.57;;;4.55;;
19903;SDS011;10114;50.970;4.962;2023-08-06T04:27:17;10.77;;;4.80;;
19903;SDS011;10114;50.970;4.962;2023-08-06T04:29:43;12.77;;;4.65;;
19903;SDS011;10114;50.970;4.962;2023-08-06T04:32:09;7.70;;;4.20;;
19903;SDS011;10114;50.970;4.962;2023-08-06T04:34:36;11.07;;;4.78;;
19903;SDS011;10114;50.970;4.962;2023-08-06T04:37:02;10.77;;;4.75;;
19903;SDS011;10114;50.970;4.962;2023-08-06T04:39:29;11.05;;;4.97;;
19903;SDS011;10114;50.970;4.962;2023-08-06T04:41:55;9.70;;;4.43;;
19903;SDS011;10114;50.970;4.962;2023-08-06T04:44:24;8.32;;;4.13;;
19903;SDS011;10114;50.970;4.962;2023-08-06T04:46:50;10.90;;;4.55;;
19903;SDS011;10114;50.970;4.962;2023-08-06T04:49:17;10.55;;;4.50;;
19903;SDS011;10114;50.970;4.962;2023-08-06T04:51:43;13.68;;;4.50;;
19903;SDS011;10114;50.970;4.962;2023-08-06T04:54:09;9.85;;;4.35;;
19903;SDS011;10114;50.970;4.962;2023-08-06T04:56:35;9.10;;;4.03;;
19903;SDS011;10114;50.970;4.962;2023-08-06T04:59:01;7.07;;;3.33;;
19903;SDS011;10114;50.970;4.962;2023-08-06T05:01:27;6.43;;;3.13;;
19903;SDS011;10114;50.970;4.962;2023-08-06T05:03:53;7.68;;;2.85;;
19903;SDS011;10114;50.970;4.962;2023-08-06T05:06:19;5.28;;;2.50;;
19903;SDS011;10114;50.970;4.962;2023-08-06T05:08:45;4.90;;;2.30;;
19903;SDS011;10114;50.970;4.962;2023-08-06T05:11:11;5.80;;;2.58;;
19903;SDS011;10114;50.970;4.962;2023-08-06T05:13:37;2.95;;;1.25;;
19903;SDS011;10114;50.970;4.962;2023-08-06T05:16:03;3.13;;;1.20;;
19903;SDS011;10114;50.970;4.962;2023-08-06T05:18:30;2.70;;;1.10;;
19903;SDS011;10114;50.970;4.962;2023-08-06T05:20:56;4.05;;;1.65;;
19903;SDS011;10114;50.970;4.962;2023-08-06T05:23:22;6.03;;;2.40;;
19903;SDS011;10114;50.970;4.962;2023-08-06T05:25:48;10.88;;;3.05;;
19903;SDS011;10114;50.970;4.962;2023-08-06T05:28:14;5.68;;;2.00;;
19903;SDS011;10114;50.970;4.962;2023-08-06T05:30:40;4.03;;;1.48;;
19903;SDS011;10114;50.970;4.962;2023-08-06T05:33:06;1.50;;;0.60;;
19903;SDS011;10114;50.970;4.962;2023-08-06T05:35:33;2.60;;;0.93;;
19903;SDS011;10114;50.970;4.962;2023-08-06T05:37:59;4.85;;;1.25;;
19903;SDS011;10114;50.970;4.962;2023-08-06T05:40:25;5.80;;;2.40;;
19903;SDS011;10114;50.970;4.962;2023-08-06T05:42:53;4.97;;;1.83;;
19903;SDS011;10114;50.970;4.962;2023-08-06T05:45:19;8.75;;;3.10;;
19903;SDS011;10114;50.970;4.962;2023-08-06T05:47:45;12.43;;;3.20;;
19903;SDS011;10114;50.970;4.962;2023-08-06T05:50:11;6.32;;;3.45;;
19903;SDS011;10114;50.970;4.962;2023-08-06T05:52:37;6.13;;;3.80;;
19903;SDS011;10114;50.970;4.962;2023-08-06T05:55:03;7.72;;;3.40;;
19903;SDS011;10114;50.970;4.962;2023-08-06T05:57:29;8.70;;;3.97;;
19903;SDS011;10114;50.970;4.962;2023-08-06T05:59:55;10.70;;;4.97;;
19903;SDS011;10114;50.970;4.962;2023-08-06T06:02:21;8.40;;;4.85;;
19903;SDS011;10114;50.970;4.962;2023-08-06T06:04:47;8.70;;;4.63;;
19903;SDS011;10114;50.970;4.962;2023-08-06T06:07:13;7.90;;;4.68;;
19903;SDS011;10114;50.970;4.962;2023-08-06T06:09:39;6.70;;;3.50;;
19903;SDS011;10114;50.970;4.962;2023-08-06T06:12:06;12.48;;;4.53;;
19903;SDS011;10114;50.970;4.962;2023-08-06T06:14:32;7.70;;;3.53;;
19903;SDS011;10114;50.970;4.962;2023-08-06T06:16:58;7.55;;;3.13;;
19903;SDS011;10114;50.970;4.962;2023-08-06T06:19:25;7.15;;;3.30;;
19903;SDS011;10114;50.970;4.962;2023-08-06T06:21:51;7.32;;;2.83;;
19903;SDS011;10114;50.970;4.962;2023-08-06T06:24:18;7.72;;;3.08;;
19903;SDS011;10114;50.970;4.962;2023-08-06T06:26:44;6.97;;;2.92;;
19903;SDS011;10114;50.970;4.962;2023-08-06T06:29:10;10.13;;;3.33;;
19903;SDS011;10114;50.970;4.962;2023-08-06T06:31:36;11.35;;;3.20;;
19903;SDS011;10114;50.970;4.962;2023-08-06T06:34:02;8.05;;;2.95;;
19903;SDS011;10114;50.970;4.962;2023-08-06T06:36:28;6.18;;;3.28;;
19903;SDS011;10114;50.970;4.962;2023-08-06T06:38:54;9.13;;;3.20;;
19903;SDS011;10114;50.970;4.962;2023-08-06T06:41:20;5.50;;;1.95;;
19903;SDS011;10114;50.970;4.962;2023-08-06T06:43:46;7.15;;;2.05;;
19903;SDS011;10114;50.970;4.962;2023-08-06T06:46:12;6.13;;;2.53;;
19903;SDS011;10114;50.970;4.962;2023-08-06T06:48:38;8.20;;;2.25;;
19903;SDS011;10114;50.970;4.962;2023-08-06T06:51:04;7.70;;;2.20;;
19903;SDS011;10114;50.970;4.962;2023-08-06T06:53:30;10.38;;;2.70;;
19903;SDS011;10114;50.970;4.962;2023-08-06T06:56:00;4.30;;;1.77;;
19903;SDS011;10114;50.970;4.962;2023-08-06T06:58:26;13.15;;;2.67;;
19903;SDS011;10114;50.970;4.962;2023-08-06T07:00:52;8.85;;;3.10;;
19903;SDS011;10114;50.970;4.962;2023-08-06T07:03:19;7.43;;;2.17;;
19903;SDS011;10114;50.970;4.962;2023-08-06T07:05:45;7.47;;;2.17;;
19903;SDS011;10114;50.970;4.962;2023-08-06T07:08:12;9.63;;;2.17;;
19903;SDS011;10114;50.970;4.962;2023-08-06T07:10:41;9.30;;;2.70;;
19903;SDS011;10114;50.970;4.962;2023-08-06T07:13:07;9.05;;;1.85;;
19903;SDS011;10114;50.970;4.962;2023-08-06T07:15:33;8.07;;;2.00;;
19903;SDS011;10114;50.970;4.962;2023-08-06T07:17:59;9.02;;;2.42;;
19903;SDS011;10114;50.970;4.962;2023-08-06T07:20:25;11.52;;;2.75;;
19903;SDS011;10114;50.970;4.962;2023-08-06T07:22:54;10.10;;;2.72;;
19903;SDS011;10114;50.970;4.962;2023-08-06T07:25:20;6.20;;;1.83;;
19903;SDS011;10114;50.970;4.962;2023-08-06T07:27:46;10.07;;;2.92;;
19903;SDS011;10114;50.970;4.962;2023-08-06T07:30:12;9.32;;;2.75;;
19903;SDS011;10114;50.970;4.962;2023-08-06T07:32:38;10.85;;;2.45;;
19903;SDS011;10114;50.970;4.962;2023-08-06T07:35:04;9.65;;;2.58;;
19903;SDS011;10114;50.970;4.962;2023-08-06T07:37:30;11.77;;;3.97;;
19903;SDS011;10114;50.970;4.962;2023-08-06T07:39:57;11.55;;;4.30;;
19903;SDS011;10114;50.970;4.962;2023-08-06T07:42:23;13.95;;;3.90;;
19903;SDS011;10114;50.970;4.962;2023-08-06T07:44:51;13.63;;;3.90;;
19903;SDS011;10114;50.970;4.962;2023-08-06T07:47:17;8.93;;;3.15;;
19903;SDS011;10114;50.970;4.962;2023-08-06T07:49:44;7.00;;;3.05;;
19903;SDS011;10114;50.970;4.962;2023-08-06T07:52:10;10.43;;;3.30;;
19903;SDS011;10114;50.970;4.962;2023-08-06T07:54:36;10.88;;;3.30;;
19903;SDS011;10114;50.970;4.962;2023-08-06T07:57:02;10.32;;;2.63;;
19903;SDS011;10114;50.970;4.962;2023-08-06T07:59:28;6.75;;;2.83;;
19903;SDS011;10114;50.970;4.962;2023-08-06T08:01:54;5.38;;;1.80;;
19903;SDS011;10114;50.970;4.962;2023-08-06T08:04:20;11.23;;;2.67;;
19903;SDS011;10114;50.970;4.962;2023-08-06T08:06:46;7.95;;;2.80;;
19903;SDS011;10114;50.970;4.962;2023-08-06T08:09:12;7.15;;;2.15;;
19903;SDS011;10114;50.970;4.962;2023-08-06T08:11:39;4.90;;;1.98;;
19903;SDS011;10114;50.970;4.962;2023-08-06T08:14:05;11.30;;;2.80;;
19903;SDS011;10114;50.970;4.962;2023-08-06T08:16:31;13.63;;;2.45;;
19903;SDS011;10114;50.970;4.962;2023-08-06T08:18:58;11.30;;;2.47;;
19903;SDS011;10114;50.970;4.962;2023-08-06T08:21:24;10.45;;;2.30;;
19903;SDS011;10114;50.970;4.962;2023-08-06T08:23:50;11.20;;;1.77;;
19903;SDS011;10114;50.970;4.962;2023-08-06T08:26:16;10.38;;;1.90;;
19903;SDS011;10114;50.970;4.962;2023-08-06T08:28:42;5.30;;;1.25;;
19903;SDS011;10114;50.970;4.962;2023-08-06T08:31:08;9.25;;;1.90;;
19903;SDS011;10114;50.970;4.962;2023-08-06T08:33:35;14.30;;;1.88;;
19903;SDS011;10114;50.970;4.962;2023-08-06T08:36:01;12.27;;;1.92;;
19903;SDS011;10114;50.970;4.962;2023-08-06T08:38:27;10.60;;;2.25;;
19903;SDS011;10114;50.970;4.962;2023-08-06T08:40:55;21.27;;;2.67;;
19903;SDS011;10114;50.970;4.962;2023-08-06T08:43:21;10.02;;;2.13;;
19903;SDS011;10114;50.970;4.962;2023-08-06T08:45:51;15.27;;;1.90;;
19903;SDS011;10114;50.970;4.962;2023-08-06T08:48:17;9.57;;;1.50;;
19903;SDS011;10114;50.970;4.962;2023-08-06T08:50:45;10.90;;;1.42;;
19903;SDS011;10114;50.970;4.962;2023-08-06T08:53:11;9.07;;;1.88;;
19903;SDS011;10114;50.970;4.962;2023-08-06T08:55:38;8.48;;;1.35;;
19903;SDS011;10114;50.970;4.962;2023-08-06T08:58:05;9.38;;;2.33;;
19903;SDS011;10114;50.970;4.962;2023-08-06T09:00:31;12.27;;;2.78;;
19903;SDS011;10114;50.970;4.962;2023-08-06T09:02:57;10.20;;;1.92;;
19903;SDS011;10114;50.970;4.962;2023-08-06T09:05:25;7.78;;;2.58;;
19903;SDS011;10114;50.970;4.962;2023-08-06T09:07:56;20.25;;;4.85;;
19903;SDS011;10114;50.970;4.962;2023-08-06T09:10:24;6.13;;;0.90;;
19903;SDS011;10114;50.970;4.962;2023-08-06T09:12:51;8.95;;;1.10;;
19903;SDS011;10114;50.970;4.962;2023-08-06T09:15:18;11.60;;;1.17;;
19903;SDS011;10114;50.970;4.962;2023-08-06T09:17:44;5.97;;;1.55;;
19903;SDS011;10114;50.970;4.962;2023-08-06T09:20:13;6.03;;;1.55;;
19903;SDS011;10114;50.970;4.962;2023-08-06T09:22:39;7.95;;;1.33;;
19903;SDS011;10114;50.970;4.962;2023-08-06T09:25:06;12.20;;;1.60;;
19903;SDS011;10114;50.970;4.962;2023-08-06T09:27:36;8.20;;;1.00;;
19903;SDS011;10114;50.970;4.962;2023-08-06T09:30:03;7.80;;;1.23;;
19903;SDS011;10114;50.970;4.962;2023-08-06T09:32:45;6.97;;;1.30;;
19903;SDS011;10114;50.970;4.962;2023-08-06T09:35:15;6.00;;;1.23;;
19903;SDS011;10114;50.970;4.962;2023-08-06T09:37:42;6.82;;;1.50;;
19903;SDS011;10114;50.970;4.962;2023-08-06T09:42:52;6.55;;;1.27;;
19903;SDS011;10114;50.970;4.962;2023-08-06T09:45:19;4.40;;;1.05;;
19903;SDS011;10114;50.970;4.962;2023-08-06T09:47:46;6.40;;;1.33;;
19903;SDS011;10114;50.970;4.962;2023-08-06T09:50:19;5.53;;;1.50;;
19903;SDS011;10114;50.970;4.962;2023-08-06T09:52:49;7.03;;;1.70;;
19903;SDS011;10114;50.970;4.962;2023-08-06T09:55:16;10.38;;;1.88;;
19903;SDS011;10114;50.970;4.962;2023-08-06T09:57:43;5.32;;;1.58;;
19903;SDS011;10114;50.970;4.962;2023-08-06T10:00:10;7.93;;;1.90;;
19903;SDS011;10114;50.970;4.962;2023-08-06T10:02:40;11.15;;;1.70;;
19903;SDS011;10114;50.970;4.962;2023-08-06T10:05:07;15.45;;;2.58;;
19903;SDS011;10114;50.970;4.962;2023-08-06T10:07:34;11.15;;;1.73;;
19903;SDS011;10114;50.970;4.962;2023-08-06T10:10:00;7.38;;;2.83;;
19903;SDS011;10114;50.970;4.962;2023-08-06T10:12:27;7.55;;;1.20;;
19903;SDS011;10114;50.970;4.962;2023-08-06T10:14:55;4.43;;;1.00;;
19903;SDS011;10114;50.970;4.962;2023-08-06T10:17:21;7.47;;;1.60;;
19903;SDS011;10114;50.970;4.962;2023-08-06T10:19:48;7.50;;;1.60;;
19903;SDS011;10114;50.970;4.962;2023-08-06T10:22:16;4.47;;;0.77;;
19903;SDS011;10114;50.970;4.962;2023-08-06T10:27:19;8.45;;;0.80;;
19903;SDS011;10114;50.970;4.962;2023-08-06T10:29:45;5.20;;;1.00;;
19903;SDS011;10114;50.970;4.962;2023-08-06T10:32:11;3.70;;;0.52;;
19903;SDS011;10114;50.970;4.962;2023-08-06T10:34:58;2.67;;;0.55;;
19903;SDS011;10114;50.970;4.962;2023-08-06T10:37:36;3.88;;;0.60;;
19903;SDS011;10114;50.970;4.962;2023-08-06T10:40:02;3.53;;;0.40;;
19903;SDS011;10114;50.970;4.962;2023-08-06T10:42:29;2.42;;;0.50;;
19903;SDS011;10114;50.970;4.962;2023-08-06T10:45:14;2.28;;;0.68;;
19903;SDS011;10114;50.970;4.962;2023-08-06T10:47:41;2.92;;;0.50;;
19903;SDS011;10114;50.970;4.962;2023-08-06T10:50:10;4.85;;;0.80;;
19903;SDS011;10114;50.970;4.962;2023-08-06T10:52:36;4.30;;;0.52;;
19903;SDS011;10114;50.970;4.962;2023-08-06T10:55:02;0.63;;;0.20;;
19903;SDS011;10114;50.970;4.962;2023-08-06T10:57:28;5.00;;;0.60;;
19903;SDS011;10114;50.970;4.962;2023-08-06T10:59:54;4.63;;;1.00;;
19903;SDS011;10114;50.970;4.962;2023-08-06T11:02:20;5.50;;;1.13;;
19903;SDS011;10114;50.970;4.962;2023-08-06T11:04:47;6.05;;;0.82;;
19903;SDS011;10114;50.970;4.962;2023-08-06T11:07:13;4.40;;;0.80;;
19903;SDS011;10114;50.970;4.962;2023-08-06T11:09:39;9.45;;;0.95;;
19903;SDS011;10114;50.970;4.962;2023-08-06T11:12:11;5.18;;;1.40;;
19903;SDS011;10114;50.970;4.962;2023-08-06T11:14:37;7.63;;;0.90;;
19903;SDS011;10114;50.970;4.962;2023-08-06T11:17:04;6.72;;;1.60;;
19903;SDS011;10114;50.970;4.962;2023-08-06T11:19:31;2.42;;;0.52;;
19903;SDS011;10114;50.970;4.962;2023-08-06T11:21:57;6.18;;;0.90;;
19903;SDS011;10114;50.970;4.962;2023-08-06T11:24:24;3.45;;;0.60;;
19903;SDS011;10114;50.970;4.962;2023-08-06T11:26:50;4.80;;;0.82;;
19903;SDS011;10114;50.970;4.962;2023-08-06T11:29:16;2.95;;;0.75;;
19903;SDS011;10114;50.970;4.962;2023-08-06T11:31:42;2.75;;;0.73;;
19903;SDS011;10114;50.970;4.962;2023-08-06T11:34:08;2.78;;;0.55;;
19903;SDS011;10114;50.970;4.962;2023-08-06T11:36:36;4.60;;;0.80;;
19903;SDS011;10114;50.970;4.962;2023-08-06T11:39:05;1.67;;;0.40;;
19903;SDS011;10114;50.970;4.962;2023-08-06T11:41:31;5.82;;;0.90;;
19903;SDS011;10114;50.970;4.962;2023-08-06T11:43:58;1.40;;;0.50;;
19903;SDS011;10114;50.970;4.962;2023-08-06T11:46:24;4.43;;;0.50;;
19903;SDS011;10114;50.970;4.962;2023-08-06T11:48:54;2.38;;;0.40;;
19903;SDS011;10114;50.970;4.962;2023-08-06T11:51:26;3.88;;;0.82;;
19903;SDS011;10114;50.970;4.962;2023-08-06T11:53:56;7.50;;;0.88;;
19903;SDS011;10114;50.970;4.962;2023-08-06T11:56:22;5.43;;;0.77;;
19903;SDS011;10114;50.970;4.962;2023-08-06T11:58:48;3.55;;;0.60;;
19903;SDS011;10114;50.970;4.962;2023-08-06T12:01:14;6.85;;;1.48;;
19903;SDS011;10114;50.970;4.962;2023-08-06T12:03:40;5.07;;;0.90;;
19903;SDS011;10114;50.970;4.962;2023-08-06T12:06:06;3.08;;;0.65;;
19903;SDS011;10114;50.970;4.962;2023-08-06T12:08:33;7.00;;;1.10;;
19903;SDS011;10114;50.970;4.962;2023-08-06T12:10:59;6.40;;;0.85;;
19903;SDS011;10114;50.970;4.962;2023-08-06T12:13:25;5.47;;;0.95;;
19903;SDS011;10114;50.970;4.962;2023-08-06T12:15:51;3.47;;;1.02;;
19903;SDS011;10114;50.970;4.962;2023-08-06T12:18:18;4.47;;;0.55;;
19903;SDS011;10114;50.970;4.962;2023-08-06T12:20:44;6.75;;;1.02;;
19903;SDS011;10114;50.970;4.962;2023-08-06T12:23:11;7.93;;;1.42;;
19903;SDS011;10114;50.970;4.962;2023-08-06T12:25:40;5.35;;;1.00;;
19903;SDS011;10114;50.970;4.962;2023-08-06T12:28:06;8.18;;;1.13;;
19903;SDS011;10114;50.970;4.962;2023-08-06T12:30:35;6.57;;;1.38;;
19903;SDS011;10114;50.970;4.962;2023-08-06T12:33:01;7.57;;;1.40;;
19903;SDS011;10114;50.970;4.962;2023-08-06T12:35:27;6.15;;;1.17;;
19903;SDS011;10114;50.970;4.962;2023-08-06T12:37:53;4.18;;;1.13;;
19903;SDS011;10114;50.970;4.962;2023-08-06T12:40:22;10.13;;;1.00;;
19903;SDS011;10114;50.970;4.962;2023-08-06T12:42:49;7.18;;;0.65;;
19903;SDS011;10114;50.970;4.962;2023-08-06T12:45:16;6.00;;;1.15;;
19903;SDS011;10114;50.970;4.962;2023-08-06T12:47:42;6.18;;;1.25;;
19903;SDS011;10114;50.970;4.962;2023-08-06T12:50:08;8.75;;;1.00;;
19903;SDS011;10114;50.970;4.962;2023-08-06T12:52:34;8.02;;;1.48;;
19903;SDS011;10114;50.970;4.962;2023-08-06T12:55:00;8.38;;;1.40;;
19903;SDS011;10114;50.970;4.962;2023-08-06T12:57:26;6.25;;;1.38;;
19903;SDS011;10114;50.970;4.962;2023-08-06T12:59:54;7.28;;;1.55;;
19903;SDS011;10114;50.970;4.962;2023-08-06T13:02:20;2.03;;;0.80;;
19903;SDS011;10114;50.970;4.962;2023-08-06T13:04:46;9.30;;;1.90;;
19903;SDS011;10114;50.970;4.962;2023-08-06T13:07:12;7.25;;;1.58;;
19903;SDS011;10114;50.970;4.962;2023-08-06T13:09:38;6.25;;;1.60;;
19903;SDS011;10114;50.970;4.962;2023-08-06T13:12:04;5.72;;;1.50;;
19903;SDS011;10114;50.970;4.962;2023-08-06T13:14:31;5.40;;;1.20;;
19903;SDS011;10114;50.970;4.962;2023-08-06T13:16:57;5.65;;;1.38;;
19903;SDS011;10114;50.970;4.962;2023-08-06T13:19:23;7.20;;;1.17;;
19903;SDS011;10114;50.970;4.962;2023-08-06T13:24:15;6.25;;;1.20;;
19903;SDS011;10114;50.970;4.962;2023-08-06T13:26:41;5.97;;;1.20;;
19903;SDS011;10114;50.970;4.962;2023-08-06T13:29:07;8.60;;;1.30;;
19903;SDS011;10114;50.970;4.962;2023-08-06T13:31:33;3.80;;;0.98;;
19903;SDS011;10114;50.970;4.962;2023-08-06T13:33:59;5.68;;;1.95;;
19903;SDS011;10114;50.970;4.962;2023-08-06T13:36:28;5.53;;;1.08;;
19903;SDS011;10114;50.970;4.962;2023-08-06T13:38:55;7.50;;;1.45;;
19903;SDS011;10114;50.970;4.962;2023-08-06T13:41:21;12.02;;;1.48;;
19903;SDS011;10114;50.970;4.962;2023-08-06T13:43:47;10.48;;;1.48;;
19903;SDS011;10114;50.970;4.962;2023-08-06T13:46:13;4.60;;;0.80;;
19903;SDS011;10114;50.970;4.962;2023-08-06T13:48:43;5.25;;;1.00;;
19903;SDS011;10114;50.970;4.962;2023-08-06T13:51:10;5.68;;;1.08;;
19903;SDS011;10114;50.970;4.962;2023-08-06T13:53:36;2.42;;;1.08;;
19903;SDS011;10114;50.970;4.962;2023-08-06T13:56:02;8.27;;;1.30;;
19903;SDS011;10114;50.970;4.962;2023-08-06T13:58:28;5.55;;;1.13;;
19903;SDS011;10114;50.970;4.962;2023-08-06T14:00:55;7.30;;;0.77;;
19903;SDS011;10114;50.970;4.962;2023-08-06T14:03:22;6.55;;;1.00;;
19903;SDS011;10114;50.970;4.962;2023-08-06T14:05:48;4.70;;;0.50;;
19903;SDS011;10114;50.970;4.962;2023-08-06T14:08:15;7.15;;;1.38;;
19903;SDS011;10114;50.970;4.962;2023-08-06T14:10:43;6.00;;;0.85;;
19903;SDS011;10114;50.970;4.962;2023-08-06T14:13:09;4.10;;;0.50;;
19903;SDS011;10114;50.970;4.962;2023-08-06T14:15:35;2.63;;;0.32;;
19903;SDS011;10114;50.970;4.962;2023-08-06T14:18:04;4.20;;;0.85;;
19903;SDS011;10114;50.970;4.962;2023-08-06T14:20:30;3.97;;;0.68;;
19903;SDS011;10114;50.970;4.962;2023-08-06T14:22:56;4.30;;;0.70;;
19903;SDS011;10114;50.970;4.962;2023-08-06T14:25:22;1.27;;;0.40;;
19903;SDS011;10114;50.970;4.962;2023-08-06T14:27:48;4.78;;;0.43;;
19903;SDS011;10114;50.970;4.962;2023-08-06T14:30:14;1.65;;;0.40;;
19903;SDS011;10114;50.970;4.962;2023-08-06T14:32:40;3.45;;;0.68;;
19903;SDS011;10114;50.970;4.962;2023-08-06T14:35:07;2.53;;;0.60;;
19903;SDS011;10114;50.970;4.962;2023-08-06T14:37:33;3.72;;;0.63;;
19903;SDS011;10114;50.970;4.962;2023-08-06T14:39:59;3.47;;;0.60;;
19903;SDS011;10114;50.970;4.962;2023-08-06T14:42:25;3.05;;;1.15;;
19903;SDS011;10114;50.970;4.962;2023-08-06T14:44:51;9.15;;;0.75;;
19903;SDS011;10114;50.970;4.962;2023-08-06T14:47:17;0.90;;;0.43;;
19903;SDS011;10114;50.970;4.962;2023-08-06T14:49:43;2.55;;;0.47;;
19903;SDS011;10114;50.970;4.962;2023-08-06T14:52:09;5.97;;;1.20;;